createdAt,value
2023-02-09T00:01:14.974Z,47.60
2023-02-09T00:03:44.062Z,34.20
2023-02-09T00:06:14.948Z,47.70
2023-02-09T00:08:43.345Z,49.20
2023-02-09T00:11:16.738Z,49.50
2023-02-09T00:13:44.636Z,34.20
2023-02-09T00:16:13.070Z,33.70
2023-02-09T00:18:41.166Z,34.10
2023-02-09T00:21:11.826Z,49.90
2023-02-09T00:23:41.425Z,49.20
2023-02-09T00:26:12.750Z,48.30
2023-02-09T00:28:40.816Z,34.10
2023-02-09T00:31:10.321Z,34.20
2023-02-09T00:33:39.092Z,34.10
2023-02-09T00:36:08.683Z,49.50
2023-02-09T00:38:37.380Z,49.10
2023-02-09T00:41:06.494Z,49.20
2023-02-09T00:43:36.154Z,47.50
2023-02-09T00:46:04.451Z,33.80
2023-02-09T00:48:32.544Z,48.50
2023-02-09T00:51:00.677Z,49.30
2023-02-09T00:53:28.865Z,47.90
2023-02-09T00:55:56.998Z,47.70
2023-02-09T00:58:25.145Z,34.30
2023-02-09T01:00:54.606Z,48.10
2023-02-09T01:03:22.688Z,34.40
2023-02-09T01:05:50.785Z,47.70
2023-02-09T01:10:47.476Z,48.20
2023-02-09T01:13:15.649Z,48.50
2023-02-09T01:15:44.194Z,48.60
2023-02-09T01:18:13.636Z,48.90
2023-02-09T01:20:42.343Z,49.70
2023-02-09T01:23:10.705Z,49.90
2023-02-09T01:25:38.833Z,49.60
2023-02-09T01:28:07.172Z,50.60
2023-02-09T01:30:35.669Z,51.00
2023-02-09T01:33:03.800Z,50.80
2023-02-09T01:35:33.249Z,50.80
2023-02-09T01:38:01.317Z,49.30
2023-02-09T01:40:29.389Z,49.90
2023-02-09T01:42:57.456Z,50.50
2023-02-09T01:45:35.102Z,50.90
2023-02-09T01:48:04.847Z,51.90
2023-02-09T01:50:37.363Z,50.60
2023-02-09T01:53:05.573Z,50.80
2023-02-09T01:55:37.330Z,50.80
2023-02-09T01:58:10.742Z,50.20
2023-02-09T02:00:39.101Z,50.40
2023-02-09T02:03:10.547Z,50.30
2023-02-09T02:05:43.065Z,50.40
2023-02-09T02:08:17.806Z,50.30
2023-02-09T02:10:46.468Z,50.80
2023-02-09T02:13:14.747Z,40.50
2023-02-09T02:15:52.490Z,51.30
2023-02-09T02:18:30.530Z,50.60
2023-02-09T02:21:25.151Z,50.60
2023-02-09T02:24:37.016Z,50.50
2023-02-09T02:27:09.939Z,51.00
2023-02-09T02:30:13.318Z,51.80
2023-02-09T02:32:53.949Z,34.10
2023-02-09T02:35:30.500Z,52.20
2023-02-09T02:38:07.859Z,51.30
2023-02-09T02:40:48.815Z,52.30
2023-02-09T02:43:24.995Z,53.70
2023-02-09T02:45:59.772Z,53.10
2023-02-09T02:48:36.052Z,52.50
2023-02-09T02:51:06.986Z,53.10
2023-02-09T02:53:37.228Z,51.30
2023-02-09T02:56:11.458Z,52.70
2023-02-09T02:58:42.367Z,54.30
2023-02-09T03:01:14.654Z,53.10
2023-02-09T03:03:46.086Z,53.80
2023-02-09T03:06:15.779Z,53.90
2023-02-09T03:08:49.087Z,34.20
2023-02-09T03:11:18.880Z,53.10
2023-02-09T03:14:11.415Z,51.70
2023-02-09T03:16:45.685Z,52.10
2023-02-09T03:19:26.244Z,52.60
2023-02-09T03:21:59.251Z,51.80
2023-02-09T03:24:38.370Z,52.70
2023-02-09T03:27:14.850Z,49.80
2023-02-09T03:29:45.376Z,52.80
2023-02-09T03:32:13.679Z,53.00
2023-02-09T03:34:43.654Z,53.90
2023-02-09T03:37:11.781Z,53.90
2023-02-09T03:39:39.939Z,55.80
2023-02-09T03:42:08.401Z,54.00
2023-02-09T03:44:36.616Z,54.90
2023-02-09T03:47:07.427Z,55.30
2023-02-09T03:49:39.335Z,53.10
2023-02-09T03:52:10.840Z,56.10
2023-02-09T03:54:39.179Z,56.50
2023-02-09T03:57:08.440Z,58.70
2023-02-09T03:59:37.646Z,52.60
2023-02-09T04:02:07.736Z,52.80
2023-02-09T04:04:36.404Z,54.50
2023-02-09T04:07:05.016Z,55.70
2023-02-09T04:09:35.147Z,56.90
2023-02-09T04:12:03.183Z,58.40
2023-02-09T04:14:31.395Z,57.20
2023-02-09T04:16:59.474Z,57.40
2023-02-09T04:19:27.556Z,57.50
2023-02-09T04:21:55.640Z,55.30
2023-02-09T04:26:53.497Z,53.70
2023-02-09T04:29:21.581Z,51.60
2023-02-09T04:31:49.678Z,56.00
2023-02-09T04:34:17.996Z,56.70
2023-02-09T04:36:46.042Z,56.40
2023-02-09T04:39:14.266Z,56.10
2023-02-09T04:41:42.331Z,57.20
2023-02-09T04:44:12.137Z,45.30
2023-02-09T04:46:40.221Z,58.20
2023-02-09T04:49:08.293Z,59.70
2023-02-09T04:51:36.353Z,59.40
2023-02-09T04:54:04.580Z,55.40
2023-02-09T04:56:32.676Z,56.90
2023-02-09T04:59:18.086Z,63.20
2023-02-09T05:01:47.517Z,61.90
2023-02-09T05:04:15.607Z,55.40
2023-02-09T05:06:43.645Z,58.80
2023-02-09T05:09:11.776Z,58.60
2023-02-09T05:11:39.822Z,58.30
2023-02-09T05:14:07.927Z,59.80
2023-02-09T05:16:38.231Z,60.60
2023-02-09T05:19:08.518Z,60.10
2023-02-09T05:21:36.653Z,55.60
2023-02-09T05:24:04.996Z,57.30
2023-02-09T05:26:33.185Z,58.50
2023-02-09T05:29:01.249Z,61.40
2023-02-09T05:31:29.398Z,58.10
2023-02-09T05:33:57.551Z,60.50
2023-02-09T05:36:27.029Z,60.10
2023-02-09T05:38:55.101Z,59.10
2023-02-09T05:41:37.027Z,61.70
2023-02-09T05:44:05.720Z,60.30
2023-02-09T05:46:33.820Z,61.30
2023-02-09T05:49:01.941Z,62.30
2023-02-09T05:51:31.391Z,34.30
2023-02-09T05:53:59.434Z,59.20
2023-02-09T05:56:27.588Z,61.20
2023-02-09T05:58:55.725Z,59.40
2023-02-09T06:03:52.230Z,56.30
2023-02-09T06:06:20.351Z,54.10
2023-02-09T06:08:49.819Z,55.10
2023-02-09T06:11:19.263Z,53.00
2023-02-09T06:13:55.614Z,51.80
2023-02-09T06:16:25.009Z,59.10
2023-02-09T06:18:53.261Z,61.60
2023-02-09T06:21:21.718Z,59.20
2023-02-09T06:23:51.170Z,58.00
2023-02-09T06:26:19.688Z,57.20
2023-02-09T06:28:47.981Z,59.60
2023-02-09T06:31:16.228Z,61.40
2023-02-09T06:33:44.347Z,45.50
2023-02-09T06:38:41.042Z,60.50
2023-02-09T06:41:10.536Z,59.90
2023-02-09T06:43:38.659Z,58.30
2023-02-09T06:46:08.000Z,60.60
2023-02-09T06:48:36.296Z,56.80
2023-02-09T06:51:08.854Z,33.70
2023-02-09T06:53:37.298Z,62.20
2023-02-09T06:56:06.049Z,60.90
2023-02-09T06:58:35.951Z,62.30
2023-02-09T07:01:04.575Z,61.10
2023-02-09T07:03:32.633Z,62.60
2023-02-09T07:06:05.150Z,32.80
2023-02-09T07:08:33.219Z,62.50
2023-02-09T07:11:03.649Z,61.60
2023-02-09T07:16:03.887Z,32.20
2023-02-09T07:18:32.052Z,62.00
2023-02-09T07:21:02.610Z,62.10
2023-02-09T07:23:30.991Z,63.40
2023-02-09T07:26:04.058Z,62.30
2023-02-09T07:28:32.377Z,31.40
2023-02-09T07:33:34.622Z,62.80
2023-02-09T07:36:05.869Z,62.00
2023-02-09T07:38:34.845Z,62.80
2023-02-09T07:41:05.198Z,62.10
2023-02-09T07:43:33.698Z,62.90
2023-02-09T07:46:04.537Z,31.70
2023-02-09T07:51:01.298Z,60.00
2023-02-09T07:53:30.299Z,61.40
2023-02-09T07:55:58.760Z,55.40
2023-02-09T07:58:26.848Z,60.90
2023-02-09T08:00:54.996Z,62.10
2023-02-09T08:03:25.994Z,62.60
2023-02-09T08:05:59.878Z,60.00
2023-02-09T08:08:27.985Z,63.90
2023-02-09T08:13:26.574Z,58.20
2023-02-09T08:15:57.673Z,55.30
2023-02-09T08:18:31.395Z,61.00
2023-02-09T08:20:59.872Z,55.60
2023-02-09T08:23:32.030Z,57.10
2023-02-09T08:26:05.292Z,55.10
2023-02-09T08:28:43.506Z,56.20
2023-02-09T08:31:12.304Z,52.50
2023-02-09T08:33:42.032Z,51.50
2023-02-09T08:36:11.287Z,31.30
2023-02-09T08:38:39.518Z,31.60
2023-02-09T08:41:10.525Z,48.60
2023-02-09T08:43:38.984Z,31.50
2023-02-09T08:46:09.521Z,31.00
2023-02-09T08:48:40.554Z,47.50
2023-02-09T08:51:11.545Z,48.00
2023-02-09T08:53:40.266Z,31.40
2023-02-09T08:56:08.828Z,30.80
2023-02-09T08:58:36.977Z,31.10
2023-02-09T09:01:05.697Z,31.00
2023-02-09T09:03:33.882Z,30.60
2023-02-09T09:06:03.795Z,44.50
2023-02-09T09:08:34.715Z,30.80
2023-02-09T09:11:02.963Z,45.10
2023-02-09T09:13:31.368Z,30.50
2023-02-09T09:15:59.442Z,43.00
2023-02-09T09:18:27.785Z,38.90
2023-02-09T09:20:57.191Z,43.10
2023-02-09T09:23:25.566Z,42.40
2023-02-09T09:25:55.052Z,42.20
2023-02-09T09:28:23.216Z,29.90
2023-02-09T09:30:51.367Z,42.10
2023-02-09T09:33:19.534Z,29.60
2023-02-09T09:35:47.937Z,41.90
2023-02-09T09:38:16.164Z,29.40
2023-02-09T09:40:46.955Z,41.30
2023-02-09T09:43:24.998Z,29.40
2023-02-09T09:45:53.200Z,38.90
2023-02-09T09:48:25.757Z,40.00
2023-02-09T09:50:56.833Z,39.80
2023-02-09T09:53:33.117Z,28.70
2023-02-09T09:56:05.628Z,39.70
2023-02-09T09:58:36.463Z,38.70
2023-02-09T10:01:06.618Z,39.50
2023-02-09T10:03:34.767Z,28.20
2023-02-09T10:06:13.872Z,37.40
2023-02-09T10:08:47.362Z,28.10
2023-02-09T10:11:17.532Z,35.70
2023-02-09T10:13:50.885Z,30.60
2023-02-09T10:16:20.977Z,28.00
2023-02-09T10:18:51.786Z,27.90
2023-02-09T10:21:20.283Z,34.70
2023-02-09T10:23:50.329Z,33.10
2023-02-09T10:26:24.776Z,27.20
2023-02-09T10:28:56.905Z,27.10
2023-02-09T10:31:27.970Z,27.10
2023-02-09T10:34:00.431Z,27.10
2023-02-09T10:36:31.840Z,26.80
2023-02-09T10:39:15.405Z,26.90
2023-02-09T10:41:47.039Z,27.10
2023-02-09T10:44:21.470Z,26.80
2023-02-09T10:46:50.926Z,26.90
2023-02-09T10:49:30.517Z,26.40
2023-02-09T10:52:08.013Z,26.40
2023-02-09T10:54:36.115Z,26.20
2023-02-09T10:57:20.330Z,26.20
2023-02-09T10:59:54.362Z,26.40
2023-02-09T11:02:39.175Z,26.80
2023-02-09T11:05:28.403Z,26.60
2023-02-09T11:08:00.292Z,26.90
2023-02-09T11:10:30.616Z,26.90
2023-02-09T11:12:59.535Z,26.70
2023-02-09T11:15:34.386Z,26.50
2023-02-09T11:18:06.735Z,26.30
2023-02-09T11:20:38.715Z,26.70
2023-02-09T11:23:34.093Z,26.50
2023-02-09T11:26:06.023Z,26.40
2023-02-09T11:28:46.297Z,25.70
2023-02-09T11:31:36.572Z,25.60
2023-02-09T11:34:17.837Z,25.70
2023-02-09T11:36:58.730Z,25.70
2023-02-09T11:39:44.640Z,25.50
2023-02-09T11:42:37.019Z,25.30
2023-02-09T11:45:09.043Z,25.50
2023-02-09T11:47:50.326Z,25.30
2023-02-09T11:50:25.484Z,25.10
2023-02-09T11:52:57.923Z,25.40
2023-02-09T11:55:30.729Z,25.40
2023-02-09T11:58:16.874Z,25.20
2023-02-09T12:00:57.778Z,25.50
2023-02-09T12:03:29.210Z,25.00
2023-02-09T12:05:57.331Z,25.00
2023-02-09T12:08:42.906Z,24.70
2023-02-09T12:11:30.068Z,24.80
2023-02-09T12:14:08.518Z,24.50
2023-02-09T12:16:41.647Z,24.70
2023-02-09T12:19:27.291Z,24.80
2023-02-09T12:21:55.533Z,24.90
2023-02-09T12:24:34.921Z,24.70
2023-02-09T12:27:02.822Z,23.70
2023-02-09T12:29:39.724Z,23.40
2023-02-09T12:32:26.311Z,23.80
2023-02-09T12:34:57.934Z,24.00
2023-02-09T12:37:28.874Z,24.10
2023-02-09T12:40:19.860Z,24.10
2023-02-09T12:43:26.090Z,24.20
2023-02-09T12:46:46.730Z,24.30
2023-02-09T12:49:32.087Z,24.20
2023-02-09T12:52:16.790Z,24.20
2023-02-09T12:54:48.424Z,24.50
2023-02-09T12:57:53.637Z,24.40
2023-02-09T13:00:43.397Z,24.50
2023-02-09T13:03:19.220Z,24.40
2023-02-09T13:05:48.768Z,24.50
2023-02-09T13:08:36.554Z,24.40
2023-02-09T13:11:22.467Z,24.60
2023-02-09T13:13:54.682Z,24.70
2023-02-09T13:16:43.890Z,25.30
2023-02-09T13:19:47.134Z,24.70
2023-02-09T13:22:27.909Z,24.70
2023-02-09T13:25:00.999Z,24.90
2023-02-09T13:27:30.374Z,25.10
2023-02-09T13:29:58.834Z,25.60
2023-02-09T13:32:44.685Z,25.70
2023-02-09T13:35:20.241Z,26.10
2023-02-09T13:37:50.982Z,26.30
2023-02-09T13:40:25.256Z,26.00
2023-02-09T13:43:16.040Z,25.20
2023-02-09T13:45:49.175Z,25.10
2023-02-09T13:48:24.527Z,24.80
2023-02-09T13:50:53.711Z,25.00
2023-02-09T13:53:24.754Z,25.30
2023-02-09T13:55:56.960Z,25.60
2023-02-09T13:58:28.496Z,23.10
2023-02-09T14:00:59.771Z,24.10
2023-02-09T14:03:30.443Z,24.30
2023-02-09T14:06:01.586Z,25.10
2023-02-09T14:08:31.235Z,25.80
2023-02-09T14:11:03.970Z,26.20
2023-02-09T14:13:35.785Z,26.40
2023-02-09T14:16:08.124Z,26.70
2023-02-09T14:18:51.436Z,26.90
2023-02-09T14:21:22.799Z,26.80
2023-02-09T14:24:12.777Z,27.00
2023-02-09T14:26:47.939Z,27.00
2023-02-09T14:29:20.046Z,26.80
2023-02-09T14:31:50.322Z,26.80
2023-02-09T14:34:31.219Z,26.90
2023-02-09T14:37:02.128Z,26.90
2023-02-09T14:39:31.819Z,27.20
2023-02-09T14:42:14.929Z,27.20
2023-02-09T14:44:54.722Z,27.00
2023-02-09T14:47:31.046Z,27.20
2023-02-09T14:49:59.642Z,27.00
2023-02-09T14:52:29.052Z,27.10
2023-02-09T14:55:01.382Z,27.40
2023-02-09T14:57:33.358Z,27.80
2023-02-09T15:00:01.527Z,28.10
2023-02-09T15:02:29.841Z,28.50
2023-02-09T15:04:58.170Z,28.60
2023-02-09T15:07:35.036Z,28.90
2023-02-09T15:10:03.451Z,28.90
2023-02-09T15:12:33.029Z,28.90
2023-02-09T15:15:02.344Z,29.00
2023-02-09T15:17:32.339Z,29.60
2023-02-09T15:20:00.547Z,29.40
2023-02-09T15:22:28.715Z,29.40
2023-02-09T15:24:57.657Z,29.50
2023-02-09T15:27:33.674Z,29.50
2023-02-09T15:30:04.894Z,29.50
2023-02-09T15:32:33.171Z,29.80
2023-02-09T15:35:01.249Z,30.00
2023-02-09T15:37:34.102Z,42.80
2023-02-09T15:40:14.898Z,44.10
2023-02-09T15:43:00.640Z,29.50
2023-02-09T15:45:49.101Z,30.00
2023-02-09T15:48:17.234Z,44.50
2023-02-09T15:50:48.091Z,30.10
2023-02-09T15:53:19.226Z,45.00
2023-02-09T15:55:47.886Z,34.30
2023-02-09T15:58:19.470Z,47.30
2023-02-09T16:00:49.098Z,46.20
2023-02-09T16:03:17.746Z,31.00
2023-02-09T16:05:46.897Z,45.70
2023-02-09T16:08:20.731Z,30.90
2023-02-09T16:10:49.291Z,45.80
2023-02-09T16:13:19.391Z,46.20
2023-02-09T16:18:17.493Z,31.70
2023-02-09T16:20:48.331Z,31.90
2023-02-09T16:23:21.152Z,34.30
2023-02-09T16:25:50.809Z,33.50
2023-02-09T16:28:19.344Z,35.30
2023-02-09T16:30:53.726Z,32.70
2023-02-09T16:33:22.981Z,33.20
2023-02-09T16:35:54.794Z,48.60
2023-02-09T16:38:23.972Z,36.40
2023-02-09T16:40:52.667Z,54.00
2023-02-09T16:43:21.566Z,32.70
2023-02-09T16:46:02.684Z,50.50
2023-02-09T16:48:34.596Z,52.80
2023-02-09T16:51:03.348Z,54.00
2023-02-09T16:53:33.867Z,32.80
2023-02-09T16:56:04.693Z,33.20
2023-02-09T16:58:33.330Z,35.70
2023-02-09T17:01:02.978Z,33.40
2023-02-09T17:03:34.675Z,55.10
2023-02-09T17:06:03.223Z,33.80
2023-02-09T17:08:33.214Z,33.20
2023-02-09T17:11:02.628Z,38.40
2023-02-09T17:13:32.195Z,33.30
2023-02-09T17:16:04.129Z,33.60
2023-02-09T17:18:34.714Z,34.00
2023-02-09T17:21:04.674Z,53.40
2023-02-09T17:23:33.137Z,55.60
2023-02-09T17:28:30.326Z,35.80
2023-02-09T17:31:00.469Z,57.70
2023-02-09T17:33:32.877Z,35.30
2023-02-09T17:38:49.960Z,56.40
2023-02-09T17:41:21.023Z,56.20
2023-02-09T17:43:51.714Z,53.10
2023-02-09T17:46:20.660Z,54.60
2023-02-09T17:48:50.408Z,50.60
2023-02-09T17:51:21.914Z,52.10
2023-02-09T17:53:50.611Z,51.40
2023-02-09T17:56:19.377Z,48.50
2023-02-09T17:58:47.951Z,50.80
2023-02-09T18:01:26.577Z,35.70
2023-02-09T18:03:58.539Z,53.60
2023-02-09T18:06:34.355Z,53.90
2023-02-09T18:09:03.851Z,54.80
2023-02-09T18:11:58.422Z,35.20
2023-02-09T18:14:27.694Z,54.70
2023-02-09T18:16:56.142Z,52.50
2023-02-09T18:19:26.857Z,52.30
2023-02-09T18:21:58.604Z,52.20
2023-02-09T18:24:28.457Z,50.10
2023-02-09T18:26:56.591Z,36.20
2023-02-09T18:29:29.220Z,49.30
2023-02-09T18:31:58.210Z,50.50
2023-02-09T18:34:28.283Z,36.40
2023-02-09T18:36:56.750Z,48.40
2023-02-09T18:39:25.311Z,36.30
2023-02-09T18:41:55.267Z,42.30
2023-02-09T18:44:24.590Z,31.40
2023-02-09T18:46:52.858Z,36.40
2023-02-09T18:49:20.956Z,57.30
2023-02-09T18:51:52.120Z,56.50
2023-02-09T18:56:48.663Z,50.30
2023-02-09T18:59:17.798Z,51.10
2023-02-09T19:01:46.526Z,50.00
2023-02-09T19:04:14.963Z,54.00
2023-02-09T19:06:43.044Z,53.80
2023-02-09T19:09:12.524Z,50.40
2023-02-09T19:11:40.589Z,47.90
2023-02-09T19:14:26.198Z,53.50
2023-02-09T19:16:54.355Z,50.40
2023-02-09T19:19:22.486Z,52.50
2023-02-09T19:21:52.125Z,48.50
2023-02-09T19:24:22.827Z,30.60
2023-02-09T19:26:50.910Z,48.60
2023-02-09T19:29:19.167Z,49.40
2023-02-09T19:31:48.603Z,49.00
2023-02-09T19:34:16.716Z,47.50
2023-02-09T19:36:44.792Z,31.20
2023-02-09T19:39:12.896Z,31.80
2023-02-09T19:41:44.349Z,46.90
2023-02-09T19:44:13.967Z,31.60
2023-02-09T19:46:42.937Z,48.20
2023-02-09T19:49:11.443Z,33.10
2023-02-09T19:51:39.569Z,32.90
2023-02-09T19:54:07.692Z,33.10
2023-02-09T19:56:35.850Z,32.60
2023-02-09T19:59:05.411Z,51.10
2023-02-09T20:01:33.611Z,50.70
2023-02-09T20:04:01.766Z,51.00
2023-02-09T20:06:31.091Z,32.90
2023-02-09T20:09:00.354Z,49.90
2023-02-09T20:11:28.675Z,49.50
2023-02-09T20:13:56.856Z,50.50
2023-02-09T20:16:28.263Z,53.40
2023-02-09T20:18:56.421Z,50.90
2023-02-09T20:21:25.134Z,34.20
2023-02-09T20:23:55.672Z,50.20
2023-02-09T20:26:26.641Z,33.50
2023-02-09T20:28:54.787Z,50.30
2023-02-09T20:31:25.787Z,50.40
2023-02-09T20:33:56.189Z,51.00
2023-02-09T20:36:25.598Z,51.20
2023-02-09T20:38:54.025Z,50.40
2023-02-09T20:41:22.633Z,49.70
2023-02-09T20:44:08.278Z,50.20
2023-02-09T20:49:37.121Z,49.70
2023-02-09T20:52:05.351Z,50.70
2023-02-09T20:54:33.421Z,34.00
2023-02-09T20:57:01.583Z,49.70
2023-02-09T20:59:31.058Z,51.90
2023-02-09T21:01:59.238Z,49.00
2023-02-09T21:04:30.134Z,33.80
2023-02-09T21:07:00.509Z,49.50
2023-02-09T21:09:29.326Z,49.80
2023-02-09T21:11:58.160Z,49.70
2023-02-09T21:14:32.556Z,49.60
2023-02-09T21:17:08.919Z,50.70
2023-02-09T21:19:37.061Z,51.50
2023-02-09T21:22:06.554Z,50.40
2023-02-09T21:24:34.974Z,33.70
2023-02-09T21:27:03.105Z,50.20
2023-02-09T21:29:31.181Z,33.80
2023-02-09T21:32:02.135Z,49.60
2023-02-09T21:34:30.318Z,49.00
2023-02-09T21:36:58.435Z,49.00
2023-02-09T21:39:27.941Z,33.90
2023-02-09T21:42:13.582Z,47.80
2023-02-09T21:44:41.765Z,49.70
2023-02-09T21:47:10.580Z,49.00
2023-02-09T21:49:38.636Z,34.10
2023-02-09T21:52:06.774Z,34.10
2023-02-09T21:54:36.253Z,52.40
2023-02-09T21:57:04.751Z,48.80
2023-02-09T21:59:32.859Z,49.30
2023-02-09T22:02:00.946Z,49.00
2023-02-09T22:04:29.065Z,48.80
2023-02-09T22:06:57.252Z,49.80
2023-02-09T22:09:25.353Z,50.70
2023-02-09T22:11:54.884Z,50.30
2023-02-09T22:14:23.157Z,50.20
2023-02-09T22:16:51.335Z,50.70
2023-02-09T22:19:19.478Z,56.00
2023-02-09T22:21:47.555Z,49.70
2023-02-09T22:24:16.687Z,53.10
2023-02-09T22:26:44.839Z,50.80
2023-02-09T22:29:15.992Z,51.80
2023-02-09T22:31:45.089Z,53.30
2023-02-09T22:34:13.456Z,52.10
2023-02-09T22:36:41.592Z,56.20
2023-02-09T22:39:10.071Z,56.50
2023-02-09T22:41:38.878Z,53.50
2023-02-09T22:44:09.013Z,53.30
2023-02-09T22:46:40.801Z,52.60
2023-02-09T22:49:13.094Z,52.80
2023-02-09T22:51:41.205Z,55.40
2023-02-09T22:54:09.376Z,56.50
2023-02-09T22:56:37.494Z,53.80
2023-02-09T22:59:05.708Z,57.20
2023-02-09T23:01:34.021Z,54.30
2023-02-09T23:04:03.579Z,53.80
2023-02-09T23:06:31.726Z,52.30
2023-02-09T23:09:01.436Z,55.40
2023-02-09T23:11:30.930Z,53.90
2023-02-09T23:14:09.256Z,54.50
2023-02-09T23:16:38.105Z,59.30
2023-02-09T23:19:10.954Z,55.30
2023-02-09T23:21:41.334Z,55.70
2023-02-09T23:24:10.269Z,59.60
2023-02-09T23:26:39.176Z,56.10
2023-02-09T23:29:09.482Z,56.40
2023-02-09T23:31:37.937Z,34.80
2023-02-09T23:34:07.474Z,56.00
2023-02-09T23:39:06.306Z,59.20
2023-02-09T23:41:35.417Z,53.80
2023-02-09T23:44:04.600Z,53.50
2023-02-09T23:46:32.919Z,54.60
2023-02-09T23:49:01.422Z,57.10
2023-02-09T23:51:33.063Z,60.20
2023-02-09T23:54:03.215Z,35.00
2023-02-09T23:56:37.233Z,57.70
2023-02-09T23:59:07.197Z,55.80
